Time;durP1;ratioP1;P1;durP2;ratioP2;P2;SDS_P1;SDS_P2;PMS_P1;PMS_P2;Temp;Humidity;BMP_temperature;BMP_pressure;BME280_temperature;BME280_humidity;BME280_pressure;Samples;Min_cycle;Max_cycle;Signal;HPM_P1;HPM_P2
2021/10/07 00:02:01;;;;;;;11.68;6.85;;;;;;;7.96;57.63;102130.91;5031062;28;20511;-63
2021/10/07 00:04:28;;;;;;;12.73;6.55;;;;;;;7.98;57.68;102134.41;5051145;28;20139;-63
2021/10/07 00:06:55;;;;;;;11.32;6.85;;;;;;;8.00;58.05;102135.31;5031211;28;20049;-63
2021/10/07 00:09:20;;;;;;;18.27;9.38;;;;;;;7.96;58.34;102124.00;5042282;28;20095;-62
2021/10/07 00:11:46;;;;;;;13.20;7.35;;;;;;;7.93;58.67;102129.16;5030174;28;20456;-63
2021/10/07 00:14:12;;;;;;;17.40;7.40;;;;;;;7.93;58.82;102136.94;5031867;28;20041;-63
2021/10/07 00:16:38;;;;;;;12.43;6.78;;;;;;;7.94;59.10;102132.63;5036982;28;20678;-63
2021/10/07 00:19:04;;;;;;;14.38;7.63;;;;;;;7.93;58.31;102142.09;5025804;28;20140;-61
2021/10/07 00:21:30;;;;;;;15.15;7.35;;;;;;;7.92;58.77;102139.47;5049935;28;20068;-64
2021/10/07 00:26:24;;;;;;;15.38;8.25;;;;;;;7.85;59.65;102135.91;5036042;28;20033;-61
2021/10/07 00:28:52;;;;;;;13.57;7.47;;;;;;;7.86;59.72;102139.38;5034492;28;20051;-60
2021/10/07 00:31:23;;;;;;;15.60;7.55;;;;;;;7.82;60.32;102141.06;5048255;28;20071;-62
2021/10/07 00:34:10;;;;;;;13.60;6.80;;;;;;;7.81;60.61;102138.44;5040658;28;20106;-63
2021/10/07 00:36:40;;;;;;;15.45;7.20;;;;;;;7.79;60.35;102138.44;5049598;28;20053;-61
2021/10/07 00:39:06;;;;;;;14.95;7.75;;;;;;;7.77;59.54;102141.84;5040594;28;20509;-63
2021/10/07 00:41:39;;;;;;;14.98;7.13;;;;;;;7.76;58.83;102147.84;5042772;28;20072;-62
2021/10/07 00:44:06;;;;;;;12.68;7.20;;;;;;;7.73;58.89;102142.63;5025207;28;20092;-60
2021/10/07 00:46:44;;;;;;;13.55;7.03;;;;;;;7.73;59.40;102140.91;5030202;28;20037;-61
2021/10/07 00:49:10;;;;;;;12.35;6.90;;;;;;;7.72;58.96;102146.94;5032510;28;20708;-62
2021/10/07 00:51:36;;;;;;;11.05;6.78;;;;;;;7.71;58.57;102145.19;5049206;28;20037;-62
2021/10/07 00:54:01;;;;;;;16.95;6.93;;;;;;;7.72;59.33;102151.25;5032335;28;20132;-61
2021/10/07 00:56:27;;;;;;;12.18;7.00;;;;;;;7.72;59.27;102152.13;5035913;28;20132;-61
2021/10/07 00:58:53;;;;;;;15.95;6.85;;;;;;;7.72;59.06;102156.44;5027482;28;20579;-61
2021/10/07 01:01:19;;;;;;;9.35;6.38;;;;;;;7.72;58.55;102151.25;5028924;28;20073;-61
2021/10/07 01:03:45;;;;;;;16.02;7.55;;;;;;;7.70;58.72;102147.75;5031962;28;20060;-61
2021/10/07 01:06:10;;;;;;;15.15;7.53;;;;;;;7.68;59.46;102152.03;5034820;28;20079;-61
2021/10/07 01:08:36;;;;;;;16.48;7.70;;;;;;;7.68;59.61;102155.50;5029074;28;20045;-61
2021/10/07 01:11:02;;;;;;;11.32;6.50;;;;;;;7.66;59.42;102155.47;5042270;28;20123;-60
2021/10/07 01:13:28;;;;;;;16.98;8.10;;;;;;;7.53;58.76;102150.94;5045997;28;20039;-61
2021/10/07 01:16:00;;;;;;;15.55;7.47;;;;;;;7.50;59.21;102147.41;5030624;28;20063;-61
2021/10/07 01:18:26;;;;;;;14.25;7.70;;;;;;;7.58;59.44;102169.16;5030095;28;20463;-61
2021/10/07 01:20:51;;;;;;;17.52;7.90;;;;;;;7.55;60.09;102163.91;5036960;28;20046;-62
2021/10/07 01:23:17;;;;;;;12.77;6.20;;;;;;;7.44;59.55;102155.06;5030852;28;20041;-61
2021/10/07 01:25:43;;;;;;;19.08;7.80;;;;;;;7.40;60.42;102154.16;5029029;28;20037;-61
2021/10/07 01:28:08;;;;;;;16.45;8.55;;;;;;;7.45;61.15;102168.03;5029020;28;20049;-61
2021/10/07 01:30:34;;;;;;;19.05;8.00;;;;;;;7.40;61.52;102167.09;5026710;28;20059;-61
2021/10/07 01:33:00;;;;;;;16.45;7.78;;;;;;;7.35;61.96;102171.31;5019264;28;20038;-61
2021/10/07 01:35:26;;;;;;;20.70;7.95;;;;;;;7.32;62.65;102180.75;5015853;28;20509;-61
2021/10/07 01:37:52;;;;;;;25.25;8.40;;;;;;;7.26;62.80;102171.16;5010999;28;20042;-62
2021/10/07 01:40:18;;;;;;;23.02;9.18;;;;;;;7.24;62.90;102180.56;5014728;28;20128;-62
2021/10/07 01:42:44;;;;;;;14.68;8.07;;;;;;;7.20;62.98;102184.84;5026065;28;20042;-62
2021/10/07 01:45:11;;;;;;;12.57;7.97;;;;;;;7.19;63.15;102189.97;5017961;28;20493;-61
2021/10/07 01:47:37;;;;;;;15.60;8.20;;;;;;;7.12;63.27;102182.91;5029029;28;20107;-61
2021/10/07 01:50:05;;;;;;;15.18;7.80;;;;;;;7.14;63.37;102183.84;5029476;28;20041;-63
2021/10/07 01:52:31;;;;;;;20.40;8.27;;;;;;;7.10;63.84;102195.84;5040023;28;20115;-63
2021/10/07 01:54:57;;;;;;;16.95;8.63;;;;;;;7.05;64.21;102191.41;5010649;28;20049;-64
2021/10/07 01:57:22;;;;;;;17.00;7.63;;;;;;;6.98;64.22;102189.53;5009622;28;20052;-62
2021/10/07 01:59:48;;;;;;;18.08;8.02;;;;;;;6.96;64.59;102183.47;5010497;28;20049;-62
2021/10/07 02:02:14;;;;;;;16.58;8.32;;;;;;;6.89;64.89;102174.72;5010239;28;20058;-62
2021/10/07 02:04:41;;;;;;;18.25;8.57;;;;;;;6.87;65.04;102181.56;5028519;28;20041;-60
2021/10/07 02:07:06;;;;;;;18.27;8.85;;;;;;;6.92;65.24;102189.41;5028955;28;20051;-62
2021/10/07 02:09:32;;;;;;;19.98;9.05;;;;;;;6.92;65.60;102186.81;5030149;28;20045;-62
2021/10/07 02:11:58;;;;;;;15.45;8.93;;;;;;;6.87;66.04;102196.19;5045331;28;20132;-62
2021/10/07 02:14:24;;;;;;;19.80;9.82;;;;;;;6.82;65.51;102196.97;5029149;28;20045;-62
2021/10/07 02:16:51;;;;;;;16.50;8.70;;;;;;;6.78;65.80;102199.47;5010342;28;20411;-61
2021/10/07 02:19:16;;;;;;;21.13;9.05;;;;;;;6.74;65.78;102197.66;5025231;28;20060;-61
2021/10/07 02:21:44;;;;;;;20.42;9.68;;;;;;;6.63;65.75;102181.06;5010156;28;20047;-61
2021/10/07 02:24:10;;;;;;;20.02;8.63;;;;;;;6.70;66.06;102201.88;5010213;28;20406;-61
2021/10/07 02:26:36;;;;;;;29.95;8.98;;;;;;;6.65;66.41;102200.03;5024968;28;20141;-62
2021/10/07 02:29:03;;;;;;;20.80;9.15;;;;;;;6.64;66.31;102198.31;5010024;28;20553;-61
2021/10/07 02:31:29;;;;;;;20.52;8.75;;;;;;;6.62;67.06;102199.97;5010060;28;20041;-61
2021/10/07 02:33:55;;;;;;;23.92;9.80;;;;;;;6.57;66.52;102197.28;5014765;28;20037;-61
2021/10/07 02:36:22;;;;;;;22.02;9.13;;;;;;;6.56;66.61;102197.25;5013129;28;20084;-62
2021/10/07 02:38:48;;;;;;;17.58;8.85;;;;;;;6.52;66.85;102198.91;5014181;28;20065;-62
2021/10/07 02:41:14;;;;;;;24.77;9.63;;;;;;;6.49;67.15;102203.16;5012756;28;20100;-61
2021/10/07 02:43:39;;;;;;;17.95;9.07;;;;;;;6.45;67.38;102201.31;5013670;28;20041;-61
2021/10/07 02:46:05;;;;;;;21.58;9.15;;;;;;;6.42;67.62;102209.88;5032756;28;20045;-62
2021/10/07 02:48:31;;;;;;;21.45;9.70;;;;;;;6.40;68.21;102201.19;5033418;28;20061;-62
2021/10/07 02:50:57;;;;;;;23.67;9.32;;;;;;;6.35;68.18;102203.69;5033332;28;20080;-62
2021/10/07 02:53:23;;;;;;;21.52;9.30;;;;;;;6.32;68.42;102211.38;5033891;28;20531;-62
2021/10/07 02:55:51;;;;;;;26.30;10.63;;;;;;;6.28;68.12;102204.38;5029860;28;20041;-61
2021/10/07 02:58:18;;;;;;;15.43;9.15;;;;;;;6.25;68.53;102204.31;4996418;28;20064;-62
2021/10/07 03:00:43;;;;;;;18.20;8.75;;;;;;;6.24;68.75;102204.25;5013564;28;20581;-62
2021/10/07 03:03:09;;;;;;;15.68;8.73;;;;;;;6.21;68.60;102205.09;5021852;28;20041;-62
2021/10/07 03:05:35;;;;;;;26.67;10.02;;;;;;;6.11;68.60;102187.63;5033213;28;20072;-62
2021/10/07 03:08:01;;;;;;;25.38;9.75;;;;;;;6.07;68.64;102185.78;5028092;28;20046;-61
2021/10/07 03:10:27;;;;;;;28.13;9.75;;;;;;;6.13;69.21;102204.00;5013618;28;20149;-60
2021/10/07 03:12:53;;;;;;;25.58;10.32;;;;;;;6.08;68.98;102195.28;5028773;28;20092;-62
2021/10/07 03:15:19;;;;;;;21.85;9.82;;;;;;;6.02;69.29;102184.78;5013385;28;20041;-60
2021/10/07 03:17:44;;;;;;;29.88;10.43;;;;;;;5.95;69.57;102188.97;5028339;28;20049;-61
2021/10/07 03:20:11;;;;;;;25.70;9.95;;;;;;;6.06;69.14;102211.59;5018648;28;20402;-61
2021/10/07 03:22:37;;;;;;;28.73;10.13;;;;;;;5.93;69.38;102192.31;5031493;28;20508;-61
2021/10/07 03:25:03;;;;;;;27.15;10.48;;;;;;;6.01;70.01;102211.47;5033003;28;20051;-61
2021/10/07 03:27:29;;;;;;;30.20;11.73;;;;;;;5.97;69.98;102205.34;5032659;28;20048;-61
2021/10/07 03:29:56;;;;;;;31.38;11.23;;;;;;;5.97;70.10;102211.38;5015419;28;20585;-61
2021/10/07 03:32:22;;;;;;;30.08;12.23;;;;;;;5.95;70.00;102206.16;5031042;28;20076;-60
2021/10/07 03:34:48;;;;;;;35.88;11.80;;;;;;;5.87;70.83;102199.91;5032489;28;20052;-61
2021/10/07 03:37:13;;;;;;;33.67;11.25;;;;;;;5.93;70.92;102210.41;5031002;28;20140;-61
2021/10/07 03:39:39;;;;;;;36.70;11.30;;;;;;;5.91;70.92;102212.94;5031156;28;20073;-62
2021/10/07 03:42:04;;;;;;;32.63;11.10;;;;;;;5.89;71.23;102208.59;5032378;28;20041;-62
2021/10/07 03:44:30;;;;;;;36.40;12.07;;;;;;;5.88;71.06;102207.72;5021892;28;20038;-62
2021/10/07 03:46:56;;;;;;;33.22;12.75;;;;;;;5.87;71.01;102215.41;5012384;28;20128;-62
2021/10/07 03:49:22;;;;;;;40.70;10.95;;;;;;;5.88;70.86;102217.16;5012274;28;20112;-61
2021/10/07 03:51:48;;;;;;;35.33;11.15;;;;;;;5.88;70.94;102214.56;5011124;28;20501;-61
2021/10/07 03:54:14;;;;;;;33.97;12.50;;;;;;;5.84;71.26;102203.28;5012355;28;20072;-62
2021/10/07 03:56:40;;;;;;;25.45;11.27;;;;;;;5.90;71.38;102213.78;5014756;28;20096;-60
2021/10/07 03:59:06;;;;;;;22.25;11.18;;;;;;;5.90;71.67;102205.16;5031951;28;20128;-60
2021/10/07 04:01:32;;;;;;;35.53;11.80;;;;;;;5.93;71.08;102210.41;5032159;28;20366;-60
2021/10/07 04:03:58;;;;;;;30.15;11.65;;;;;;;5.97;71.08;102204.47;5032279;28;20476;-61
2021/10/07 04:06:23;;;;;;;31.55;13.27;;;;;;;5.99;71.63;102207.09;5031035;28;20041;-61
2021/10/07 04:08:49;;;;;;;31.25;11.43;;;;;;;6.00;71.26;102203.69;5030330;28;20080;-59
2021/10/07 04:11:15;;;;;;;28.08;11.02;;;;;;;5.99;71.47;102210.56;5031412;28;20536;-59
2021/10/07 04:13:41;;;;;;;44.83;12.00;;;;;;;6.02;71.44;102213.19;5014311;28;20041;-61
2021/10/07 04:16:07;;;;;;;31.25;12.25;;;;;;;6.02;71.67;102205.44;5031878;28;20045;-61
2021/10/07 04:18:33;;;;;;;26.05;11.27;;;;;;;6.04;71.26;102208.09;5031820;28;20103;-60
2021/10/07 04:20:58;;;;;;;38.03;13.07;;;;;;;6.06;71.25;102209.00;5030219;28;20046;-61
2021/10/07 04:23:24;;;;;;;32.72;11.88;;;;;;;6.05;71.86;102210.72;5030472;28;20037;-60
2021/10/07 04:25:50;;;;;;;30.73;11.98;;;;;;;6.08;71.79;102213.34;5031726;28;20517;-61
2021/10/07 04:28:15;;;;;;;28.15;11.23;;;;;;;6.13;71.23;102209.19;5031919;28;20040;-59
2021/10/07 04:30:41;;;;;;;35.03;11.38;;;;;;;6.16;71.22;102209.25;5031143;28;20496;-61
2021/10/07 04:33:10;;;;;;;29.33;11.23;;;;;;;6.19;70.87;102213.63;5030857;28;20064;-60
2021/10/07 04:35:36;;;;;;;37.17;11.70;;;;;;;6.21;70.78;102212.84;5030013;28;20041;-60
2021/10/07 04:38:03;;;;;;;36.88;12.05;;;;;;;6.22;71.53;102211.13;5031857;28;20064;-56
2021/10/07 04:40:28;;;;;;;35.47;12.82;;;;;;;6.23;71.20;102208.56;5030957;28;20187;-57
2021/10/07 04:42:55;;;;;;;34.13;11.57;;;;;;;6.26;71.71;102208.66;5029959;28;20123;-56
2021/10/07 04:45:21;;;;;;;27.67;10.82;;;;;;;6.32;71.29;102207.91;5021877;28;20043;-59
2021/10/07 04:47:47;;;;;;;32.10;12.25;;;;;;;6.38;71.02;102205.47;5025911;28;20062;-57
2021/10/07 04:50:12;;;;;;;33.40;12.60;;;;;;;6.45;71.04;102206.47;5027732;28;20033;-56
2021/10/07 04:52:38;;;;;;;41.13;14.20;;;;;;;6.53;71.09;102207.53;5030610;28;20516;-59
2021/10/07 04:55:05;;;;;;;41.28;13.40;;;;;;;6.57;71.22;102199.00;5030036;28;20063;-58
2021/10/07 04:57:32;;;;;;;37.00;12.93;;;;;;;6.63;71.25;102192.25;5012327;28;20064;-57
2021/10/07 04:59:57;;;;;;;32.30;13.50;;;;;;;6.75;70.74;102207.19;5019352;28;20092;-58
2021/10/07 05:02:23;;;;;;;33.00;13.45;;;;;;;6.73;70.65;102189.03;5020778;28;20536;-60
2021/10/07 05:04:49;;;;;;;47.63;12.75;;;;;;;6.93;70.59;102197.22;5029669;28;20048;-56
2021/10/07 05:07:15;;;;;;;42.22;13.20;;;;;;;7.06;70.44;102211.28;5043131;28;20134;-57
2021/10/07 05:09:41;;;;;;;41.17;16.27;;;;;;;7.15;70.24;102204.56;5038804;28;20069;-54
2021/10/07 05:12:07;;;;;;;33.25;13.23;;;;;;;7.25;69.59;102190.09;5032328;28;20087;-53
2021/10/07 05:14:33;;;;;;;44.13;13.20;;;;;;;7.49;69.32;102197.44;5040987;28;20041;-58
2021/10/07 05:16:58;;;;;;;34.53;14.05;;;;;;;7.68;69.07;102194.34;5036048;28;20048;-50
2021/10/07 05:19:24;;;;;;;35.08;14.60;;;;;;;7.87;68.31;102191.22;5030349;28;20045;-56
2021/10/07 05:21:50;;;;;;;52.08;16.02;;;;;;;8.15;67.64;102200.31;5031274;28;20481;-59
2021/10/07 05:24:15;;;;;;;42.53;14.23;;;;;;;8.51;66.32;102197.44;5030499;28;20044;-60
2021/10/07 05:26:41;;;;;;;36.50;12.90;;;;;;;8.97;65.28;102200.63;5025151;28;20033;-59
2021/10/07 05:29:07;;;;;;;37.42;14.25;;;;;;;9.72;63.48;102195.44;5008524;28;20042;-59
2021/10/07 05:31:33;;;;;;;45.13;13.57;;;;;;;10.50;60.75;102166.59;5012187;28;20424;-58
2021/10/07 05:33:58;;;;;;;35.08;14.00;;;;;;;11.41;58.51;102189.50;5047853;28;20037;-57
2021/10/07 05:36:24;;;;;;;44.42;14.35;;;;;;;12.16;55.99;102183.50;5049460;28;20049;-60
2021/10/07 05:38:50;;;;;;;35.60;14.57;;;;;;;12.95;53.76;102187.66;5046787;28;20037;-59
2021/10/07 05:41:15;;;;;;;41.28;15.05;;;;;;;13.77;51.43;102188.06;5029421;28;20058;-59
2021/10/07 05:43:41;;;;;;;55.22;24.77;;;;;;;14.52;49.43;102187.44;5028055;28;20121;-51
2021/10/07 05:46:07;;;;;;;35.65;12.65;;;;;;;15.22;47.75;102184.84;5014584;28;20048;-50
2021/10/07 05:48:34;;;;;;;25.52;11.68;;;;;;;15.82;45.81;102184.84;5010209;28;20061;-52
2021/10/07 05:51:00;;;;;;;32.45;12.98;;;;;;;16.48;43.92;102190.69;5022799;28;20045;-61
2021/10/07 05:53:25;;;;;;;33.20;13.63;;;;;;;16.98;42.45;102173.94;5038321;28;20472;-63
2021/10/07 05:55:51;;;;;;;34.00;13.73;;;;;;;17.62;41.22;102191.84;5047067;28;20044;-64
2021/10/07 05:58:17;;;;;;;28.02;12.75;;;;;;;18.16;39.19;102188.75;5029053;28;20597;-61
2021/10/07 06:00:43;;;;;;;22.38;10.13;;;;;;;18.67;36.57;102177.75;5030233;28;20051;-61
2021/10/07 06:03:09;;;;;;;20.75;11.02;;;;;;;19.16;35.72;102187.72;5030725;28;20053;-64
2021/10/07 06:05:36;;;;;;;21.92;10.38;;;;;;;19.63;34.13;102188.91;5011242;28;20169;-70
2021/10/07 06:08:02;;;;;;;21.88;9.75;;;;;;;20.18;32.60;102195.88;5012076;28;20037;-65
2021/10/07 06:10:27;;;;;;;18.85;10.05;;;;;;;20.54;31.54;102184.06;5034821;28;20079;-63
2021/10/07 06:12:53;;;;;;;19.27;9.73;;;;;;;20.93;30.16;102194.09;5040470;28;20038;-62
2021/10/07 06:15:19;;;;;;;22.30;9.35;;;;;;;21.24;29.72;102191.19;5028652;28;20095;-63
2021/10/07 06:17:45;;;;;;;15.48;9.70;;;;;;;21.73;28.71;102193.59;5011773;28;20068;-63
2021/10/07 06:20:23;;;;;;;22.85;9.57;;;;;;;22.02;28.25;102191.56;5029271;28;20033;-61
2021/10/07 06:22:50;;;;;;;18.02;8.82;;;;;;;22.44;26.76;102195.03;5029275;28;20085;-61
2021/10/07 06:25:17;;;;;;;19.20;9.73;;;;;;;22.86;25.87;102188.78;5029189;28;20048;-62
2021/10/07 06:27:43;;;;;;;15.25;9.25;;;;;;;23.27;25.17;102193.00;5009422;28;20445;-65
2021/10/07 06:30:10;;;;;;;17.20;10.20;;;;;;;23.68;25.28;102191.06;5024521;28;20980;-63
2021/10/07 06:32:36;;;;;;;17.83;9.70;;;;;;;24.09;24.49;102196.94;5009501;28;20137;-64
2021/10/07 06:35:02;;;;;;;17.70;9.38;;;;;;;24.30;23.74;102182.59;5009886;28;20069;-61
2021/10/07 06:37:29;;;;;;;17.98;10.38;;;;;;;24.62;23.55;102188.88;5040759;28;20583;-52
2021/10/07 06:39:54;;;;;;;16.95;10.90;;;;;;;24.80;23.53;102189.72;5027264;28;20053;-54
2021/10/07 06:42:20;;;;;;;18.67;9.73;;;;;;;25.04;22.75;102184.88;5027973;28;20124;-52
2021/10/07 06:44:46;;;;;;;17.02;9.70;;;;;;;25.42;22.39;102180.94;5020638;28;20041;-52
2021/10/07 06:47:12;;;;;;;39.63;27.50;;;;;;;25.64;22.60;102183.28;5027895;28;20048;-50
2021/10/07 06:49:37;;;;;;;19.95;9.93;;;;;;;25.69;22.32;102176.72;5009873;28;20074;-59
2021/10/07 06:52:03;;;;;;;21.05;10.27;;;;;;;25.71;22.56;102182.81;5023631;28;20045;-60
2021/10/07 06:54:29;;;;;;;18.83;10.55;;;;;;;25.86;22.43;102182.84;5029005;28;20072;-52
2021/10/07 06:56:55;;;;;;;13.73;9.40;;;;;;;26.21;21.50;102178.97;5028248;28;20041;-55
2021/10/07 06:59:21;;;;;;;18.55;9.73;;;;;;;26.35;21.27;102180.84;5027538;28;20041;-52
2021/10/07 07:01:47;;;;;;;20.05;13.07;;;;;;;26.40;21.20;102176.94;5028351;28;20046;-55
2021/10/07 07:04:16;;;;;;;17.98;10.32;;;;;;;26.71;21.05;102183.03;5011233;28;20056;-56
2021/10/07 07:06:43;;;;;;;15.73;9.88;;;;;;;27.09;20.39;102184.19;5029010;28;20052;-56
2021/10/07 07:09:10;;;;;;;15.07;9.38;;;;;;;27.47;19.86;102178.19;5029068;28;20072;-56
2021/10/07 07:11:36;;;;;;;21.17;10.05;;;;;;;27.70;19.25;102172.19;5027022;28;20777;-61
2021/10/07 07:14:05;;;;;;;18.63;10.85;;;;;;;28.05;19.19;102178.72;5012835;28;20048;-49
2021/10/07 07:16:33;;;;;;;17.98;9.32;;;;;;;28.32;18.93;102188.50;5009163;28;20041;-49
2021/10/07 07:18:59;;;;;;;12.63;7.65;;;;;;;28.27;18.32;102191.50;5007118;28;20119;-46
2021/10/07 07:21:29;;;;;;;12.27;7.68;;;;;;;28.20;17.94;102179.53;5007522;28;20042;-48
2021/10/07 07:23:57;;;;;;;12.75;8.02;;;;;;;27.60;17.81;102185.31;5029095;28;20037;-46
2021/10/07 07:26:23;;;;;;;12.50;7.73;;;;;;;26.70;18.74;102186.66;5032506;28;20132;-48
2021/10/07 07:28:49;;;;;;;14.35;7.50;;;;;;;26.09;19.25;102177.91;5031449;28;20045;-47
2021/10/07 07:31:15;;;;;;;10.30;7.68;;;;;;;25.49;19.93;102176.94;5032669;28;20041;-50
2021/10/07 07:33:41;;;;;;;14.80;10.38;;;;;;;25.82;19.73;102184.00;5026347;28;20049;-48
2021/10/07 07:36:07;;;;;;;17.13;12.43;;;;;;;25.85;19.86;102179.34;5027879;28;20037;-50
2021/10/07 07:38:32;;;;;;;12.35;9.63;;;;;;;25.90;20.46;102173.75;5014274;28;20521;-48
2021/10/07 07:40:58;;;;;;;19.10;10.18;;;;;;;26.24;20.13;102177.94;5032127;28;20041;-47
2021/10/07 07:43:24;;;;;;;18.33;9.98;;;;;;;26.66;19.98;102169.97;5032250;28;20464;-46
2021/10/07 07:45:50;;;;;;;19.98;10.32;;;;;;;26.56;20.04;102167.03;5031487;28;20072;-46
2021/10/07 07:48:17;;;;;;;12.65;9.23;;;;;;;26.45;19.59;102171.31;5032134;28;20410;-47
2021/10/07 07:50:43;;;;;;;21.90;10.50;;;;;;;26.09;20.16;102158.38;5032325;28;20575;-49
2021/10/07 07:53:10;;;;;;;23.27;12.43;;;;;;;26.29;19.99;102170.53;5031056;28;20057;-49
2021/10/07 07:55:37;;;;;;;20.00;11.68;;;;;;;26.79;19.38;102172.75;5030788;28;20076;-47
2021/10/07 07:58:03;;;;;;;15.40;10.75;;;;;;;26.76;19.03;102170.25;5020748;28;20045;-47
2021/10/07 08:00:29;;;;;;;14.88;8.30;;;;;;;26.85;18.54;102167.88;5012198;28;20531;-48
2021/10/07 08:02:54;;;;;;;17.48;9.45;;;;;;;26.92;18.63;102179.91;5010751;28;20140;-46
2021/10/07 08:05:20;;;;;;;12.02;8.52;;;;;;;26.13;18.68;102182.09;5012009;28;20092;-48
2021/10/07 08:07:46;;;;;;;20.27;10.18;;;;;;;25.53;18.94;102170.53;5010710;28;20073;-51
2021/10/07 08:10:12;;;;;;;18.52;10.73;;;;;;;25.52;19.55;102173.28;5023303;28;20084;-50
2021/10/07 08:12:37;;;;;;;21.13;10.52;;;;;;;25.37;20.20;102169.69;5031722;28;20064;-46
2021/10/07 08:15:06;;;;;;;20.50;12.90;;;;;;;25.01;21.02;102171.75;5030370;28;20175;-50
2021/10/07 08:17:33;;;;;;;28.67;19.40;;;;;;;25.05;20.71;102174.13;5028979;28;20048;-47
2021/10/07 08:20:00;;;;;;;19.50;11.73;;;;;;;25.05;20.54;102174.13;5011953;28;20037;-47
2021/10/07 08:22:26;;;;;;;15.60;9.25;;;;;;;24.85;20.13;102183.19;5026620;28;20049;-48
2021/10/07 08:24:53;;;;;;;14.48;8.07;;;;;;;24.65;19.80;102164.75;5011505;28;20037;-47
2021/10/07 08:27:18;;;;;;;14.98;8.15;;;;;;;24.86;19.34;102165.44;5026963;28;20049;-49
2021/10/07 08:29:45;;;;;;;13.02;8.10;;;;;;;25.61;18.83;102170.97;5031551;28;20045;-48
2021/10/07 08:32:11;;;;;;;18.33;11.07;;;;;;;25.94;19.03;102169.94;5046640;28;20049;-47
2021/10/07 08:34:37;;;;;;;12.52;7.15;;;;;;;26.14;18.38;102170.47;5016178;28;20062;-53
2021/10/07 08:37:04;;;;;;;11.43;7.35;;;;;;;25.76;18.07;102171.88;5011462;28;20092;-48
2021/10/07 08:39:30;;;;;;;13.02;6.97;;;;;;;25.45;18.06;102164.75;5011359;28;20496;-45
2021/10/07 08:41:56;;;;;;;12.77;7.38;;;;;;;25.78;17.81;102159.31;5011958;28;20072;-45
2021/10/07 08:44:21;;;;;;;12.18;7.15;;;;;;;26.66;17.22;102169.13;5010972;28;20140;-45
2021/10/07 08:46:53;;;;;;;16.00;7.97;;;;;;;27.52;16.68;102163.59;5030655;28;20179;-50
2021/10/07 08:49:22;;;;;;;15.80;7.40;;;;;;;28.07;16.33;102163.41;5030228;28;20579;-51
2021/10/07 08:51:48;;;;;;;14.20;7.68;;;;;;;28.83;15.99;102162.63;5030953;28;20037;-46
2021/10/07 08:54:14;;;;;;;11.90;7.10;;;;;;;29.56;15.58;102170.66;5031130;28;20114;-48
2021/10/07 08:56:40;;;;;;;9.88;7.70;;;;;;;30.19;15.22;102167.63;5030615;28;20478;-46
2021/10/07 08:59:07;;;;;;;14.13;7.07;;;;;;;30.55;14.27;102169.28;5020455;28;20060;-46
2021/10/07 09:01:34;;;;;;;12.93;7.63;;;;;;;30.59;14.44;102160.00;5010968;28;20050;-46
2021/10/07 09:04:00;;;;;;;18.83;10.48;;;;;;;30.52;14.29;102169.50;5026285;28;20117;-46
2021/10/07 09:06:27;;;;;;;9.98;7.00;;;;;;;29.98;13.96;102175.50;5010781;28;20045;-46
2021/10/07 09:08:53;;;;;;;11.60;6.75;;;;;;;28.89;14.46;102171.03;5011112;28;20053;-49
2021/10/07 09:11:29;;;;;;;13.57;7.60;;;;;;;28.23;14.89;102172.13;5023520;28;20128;-48
2021/10/07 09:13:59;;;;;;;12.57;6.93;;;;;;;28.45;14.96;102171.50;5028980;28;20140;-47
2021/10/07 09:16:45;;;;;;;11.63;6.90;;;;;;;29.23;14.72;102165.91;5030448;28;20042;-47
2021/10/07 09:19:24;;;;;;;10.20;6.45;;;;;;;29.85;14.03;102158.56;5030511;28;20045;-47
2021/10/07 09:21:52;;;;;;;13.95;6.93;;;;;;;30.24;14.36;102160.91;5029135;28;20041;-50
2021/10/07 09:24:51;;;;;;;9.98;8.20;;;;;;;28.64;14.45;102165.69;5026810;28;20051;-46
2021/10/07 09:27:31;;;;;;;12.50;7.70;;;;;;;28.06;14.87;102159.00;5018002;28;20049;-46
2021/10/07 09:30:10;;;;;;;14.85;8.77;;;;;;;28.23;14.81;102164.09;5030185;28;20099;-49
2021/10/07 09:32:41;;;;;;;10.10;7.07;;;;;;;29.04;14.76;102161.06;5029645;28;20139;-47
2021/10/07 09:35:09;;;;;;;9.00;6.63;;;;;;;28.91;14.16;102165.59;5010155;28;20088;-47
2021/10/07 09:37:35;;;;;;;10.83;6.40;;;;;;;28.41;14.46;102159.31;5010429;28;20410;-47
2021/10/07 09:40:17;;;;;;;10.18;7.15;;;;;;;28.27;14.71;102155.84;5010361;28;20095;-45
2021/10/07 09:42:51;;;;;;;10.43;6.78;;;;;;;29.23;14.75;102144.47;5008990;28;20434;-50
2021/10/07 09:45:24;;;;;;;11.88;6.20;;;;;;;29.74;13.71;102148.66;5017621;28;20038;-47
2021/10/07 09:47:52;;;;;;;10.65;6.47;;;;;;;29.91;13.81;102143.88;5029903;28;20144;-47
2021/10/07 09:50:27;;;;;;;9.98;7.03;;;;;;;30.53;13.55;102145.22;5028629;28;20071;-46
2021/10/07 09:53:12;;;;;;;12.57;7.82;;;;;;;30.10;13.43;102150.38;5028448;28;20464;-46
2021/10/07 09:55:45;;;;;;;12.15;8.02;;;;;;;29.25;14.19;102145.25;5029671;28;20497;-47
2021/10/07 09:58:14;;;;;;;14.05;7.20;;;;;;;29.26;13.97;102155.81;5043605;28;20053;-48
2021/10/07 10:00:43;;;;;;;;;;;;;;;29.24;14.06;102141.69;5030176;28;20041;-50
2021/10/07 10:03:10;;;;;;;12.65;7.40;;;;;;;30.02;13.55;102139.38;5029792;28;19920;-51
2021/10/07 10:05:37;;;;;;;14.13;6.90;;;;;;;30.39;13.30;102132.00;5028541;28;20034;-47
2021/10/07 10:08:05;;;;;;;12.20;7.78;;;;;;;30.83;13.44;102124.94;5023226;28;20140;-47
2021/10/07 10:10:31;;;;;;;13.32;7.68;;;;;;;31.28;13.16;102115.81;5009878;28;20053;-50
2021/10/07 10:12:57;;;;;;;14.07;7.57;;;;;;;31.51;13.04;102120.13;5009973;28;20084;-48
2021/10/07 10:15:23;;;;;;;18.15;7.65;;;;;;;31.15;13.19;102109.75;5009616;28;20046;-50
2021/10/07 10:17:49;;;;;;;20.23;8.82;;;;;;;31.28;13.09;102110.44;5009939;28;20038;-46
2021/10/07 10:20:23;;;;;;;9.70;8.65;;;;;;;31.60;12.92;102101.53;5029705;28;20068;-50
2021/10/07 10:23:01;;;;;;;14.30;9.30;;;;;;;31.84;12.76;102107.50;5011480;28;20056;-47
2021/10/07 10:25:28;;;;;;;16.38;8.75;;;;;;;32.07;12.66;102109.09;5029240;28;20033;-47
2021/10/07 10:28:02;;;;;;;14.25;7.88;;;;;;;32.32;12.29;102102.44;5027944;28;20045;-46
2021/10/07 10:30:46;;;;;;;13.38;8.10;;;;;;;32.46;12.31;102109.28;5029272;28;20041;-49
2021/10/07 10:33:30;;;;;;;13.88;7.90;;;;;;;32.63;12.38;102101.44;5015439;28;20472;-48
2021/10/07 10:35:57;;;;;;;13.73;9.00;;;;;;;32.27;12.25;102110.06;5024378;28;20049;-46
2021/10/07 10:38:23;;;;;;;11.23;8.15;;;;;;;31.46;12.78;102102.66;5007741;28;20446;-49
2021/10/07 10:40:49;;;;;;;13.27;8.07;;;;;;;30.45;12.65;102085.88;5024146;28;20130;-47
2021/10/07 10:43:18;;;;;;;17.10;8.65;;;;;;;30.08;13.09;102092.44;5007449;28;20045;-50
2021/10/07 10:46:01;;;;;;;16.67;8.93;;;;;;;30.85;12.73;102086.22;5024862;28;20064;-48
2021/10/07 10:48:48;;;;;;;13.63;8.25;;;;;;;31.28;12.82;102099.69;5008624;28;20124;-50
2021/10/07 10:51:17;;;;;;;16.77;8.98;;;;;;;30.99;12.54;102090.44;5008848;28;20081;-50
2021/10/07 10:53:56;;;;;;;12.18;8.75;;;;;;;31.14;12.43;102083.88;5008883;28;20366;-48
2021/10/07 10:56:22;;;;;;;12.38;9.23;;;;;;;30.92;13.13;102070.44;5009657;28;20136;-48
2021/10/07 10:59:18;;;;;;;14.65;7.90;;;;;;;31.47;12.95;102080.16;5031971;28;20071;-46
2021/10/07 11:01:44;;;;;;;14.45;7.68;;;;;;;31.76;12.51;102078.59;5031335;28;20049;-47
2021/10/07 11:04:10;;;;;;;12.10;7.97;;;;;;;31.94;12.35;102070.75;5032750;28;20049;-47
2021/10/07 11:07:13;;;;;;;14.55;7.85;;;;;;;32.18;12.04;102082.13;5031056;28;20037;-49
2021/10/07 11:10:00;;;;;;;13.05;10.30;;;;;;;32.29;12.00;102054.25;5039471;28;20052;-47
2021/10/07 11:12:31;;;;;;;16.60;7.95;;;;;;;32.56;11.71;102065.22;5012575;28;20424;-51
2021/10/07 11:14:57;;;;;;;12.63;8.18;;;;;;;32.41;11.90;102069.28;5011112;28;20041;-48
2021/10/07 11:17:25;;;;;;;15.15;8.57;;;;;;;32.26;11.85;102074.19;5012703;28;20545;-47
2021/10/07 11:19:51;;;;;;;;;;;;;;;32.20;12.20;102073.88;5021314;28;20075;-46
2021/10/07 11:22:16;;;;;;;11.15;7.68;;;;;;;31.86;12.12;102060.66;5032473;28;20019;-49
2021/10/07 11:24:56;;;;;;;13.63;8.30;;;;;;;30.63;12.52;102052.19;5032390;28;20060;-46